Terminal Aerodrome Forecast
Issued by NWS Sterling, VA

Current Version | Previous Version | Text Only | Print | Product List | Glossary Off
Versions: 1 2 3 4 5 6 7 8 9 10 11 12 13 14 15 16 17 18 19 20 21 22 23 24 25

000
FTUS41 KLWX 152300
TAFDCA
TAF
KDCA 152330Z 1600/1624 12006KT P6SM SCT250
     FM161000 15006KT P6SM BKN070
     FM161600 16008KT P6SM -SHRA OVC040
     FM162200 20007KT P6SM BKN025=

USA.gov is the U.S. government's official web portal to all federal, state and local government web resources and services.